Time;durP1;ratioP1;P1;durP2;ratioP2;P2;SDS_P1;SDS_P2;PMS_P1;PMS_P2;Temp;Humidity;BMP_temperature;BMP_pressure;BME280_temperature;BME280_humidity;BME280_pressure;Samples;Min_cycle;Max_cycle;Signal;HPM_P1;HPM_P2
2022/05/08 00:01:38;;;;;;;5.80;5.00;;;14.20;99.90;;;;;;5077779;28;20313;-78
2022/05/08 00:04:06;;;;;;;7.97;4.90;;;14.30;99.90;;;;;;5079012;28;20213;-78
2022/05/08 00:06:37;;;;;;;9.33;4.97;;;14.60;99.90;;;;;;5099482;28;20185;-80
2022/05/08 00:09:04;;;;;;;9.30;5.27;;;14.60;99.90;;;;;;5083056;28;20256;-79
2022/05/08 00:11:34;;;;;;;9.10;5.30;;;14.60;99.90;;;;;;5061308;28;20216;-80
2022/05/08 00:14:03;;;;;;;6.93;4.30;;;14.60;99.90;;;;;;5083858;28;20251;-80
2022/05/08 00:16:30;;;;;;;6.37;4.47;;;14.90;99.90;;;;;;5072959;28;20268;-78
2022/05/08 00:19:00;;;;;;;7.57;4.23;;;15.10;51.00;;;;;;5082151;28;20218;-78
2022/05/08 00:21:29;;;;;;;4.80;4.10;;;15.40;10.00;;;;;;5078193;28;20218;-79
2022/05/08 00:23:56;;;;;;;5.87;3.97;;;15.40;1.00;;;;;;5083122;28;20196;-79
2022/05/08 00:26:28;;;;;;;8.20;4.90;;;15.10;26.90;;;;;;5098369;28;20199;-78
2022/05/08 00:28:55;;;;;;;8.30;4.60;;;15.20;1.00;;;;;;5080351;28;20268;-78
2022/05/08 00:31:24;;;;;;;8.13;4.60;;;15.00;2.30;;;;;;5099377;28;20277;-77
2022/05/08 00:33:52;;;;;;;6.67;4.60;;;15.00;5.00;;;;;;5081564;28;20205;-78
2022/05/08 00:36:19;;;;;;;8.93;5.70;;;14.70;1.00;;;;;;5097969;28;20208;-78
2022/05/08 00:38:47;;;;;;;7.90;5.17;;;14.90;1.00;;;;;;5079930;28;20190;-78
2022/05/08 00:41:16;;;;;;;7.43;4.97;;;15.00;26.10;;;;;;5082553;28;20246;-78
2022/05/08 00:44:05;;;;;;;6.60;5.07;;;15.10;1.00;;;;;;5076376;28;20201;-80
2022/05/08 00:46:33;;;;;;;10.03;6.90;;;15.30;1.00;;;;;;5101474;28;20209;-82
2022/05/08 00:49:00;;;;;;;12.20;6.77;;;14.40;1.00;;;;;;5103045;28;20216;-77
2022/05/08 00:51:28;;;;;;;8.33;5.63;;;14.20;1.00;;;;;;5101252;28;20209;-79
2022/05/08 00:53:57;;;;;;;7.37;5.70;;;14.30;1.00;;;;;;5119765;27;20197;-79
2022/05/08 00:56:25;;;;;;;5.50;4.77;;;14.60;1.00;;;;;;5084892;28;20203;-78
2022/05/08 00:58:52;;;;;;;11.73;5.80;;;14.60;1.00;;;;;;5101869;28;20233;-78
2022/05/08 01:01:21;;;;;;;6.97;5.97;;;14.10;1.00;;;;;;5105011;28;20209;-78
2022/05/08 01:03:48;;;;;;;8.50;5.67;;;14.30;1.00;;;;;;5098681;28;20617;-78
2022/05/08 01:06:17;;;;;;;10.53;5.80;;;14.60;1.00;;;;;;5087481;28;20227;-78
2022/05/08 01:08:46;;;;;;;11.83;7.07;;;14.40;1.00;;;;;;5099486;28;20225;-78
2022/05/08 01:11:14;;;;;;;7.57;5.80;;;14.70;1.00;;;;;;5113306;27;20193;-79
2022/05/08 01:13:42;;;;;;;14.27;6.40;;;14.20;1.00;;;;;;5091976;28;20201;-78
2022/05/08 01:16:23;;;;;;;15.63;7.90;;;13.90;1.00;;;;;;5130848;27;20221;-78
2022/05/08 01:19:02;;;;;;;11.63;6.60;;;13.90;1.00;;;;;;5106497;28;20371;-79
2022/05/08 01:21:41;;;;;;;9.10;5.50;;;14.00;1.00;;;;;;5102484;28;20285;-78
2022/05/08 01:24:09;;;;;;;9.73;6.90;;;13.70;13.80;;;;;;5083655;28;20197;-78
2022/05/08 01:26:36;;;;;;;14.97;8.00;;;13.80;1.00;;;;;;5084443;28;20289;-77
2022/05/08 01:29:03;;;;;;;12.03;7.17;;;13.00;1.00;;;;;;5083937;28;20194;-78
2022/05/08 01:31:31;;;;;;;15.07;8.23;;;12.40;99.90;;;;;;5103944;28;20190;-80
2022/05/08 01:33:59;;;;;;;12.50;7.97;;;12.70;99.90;;;;;;5083436;28;20194;-78
2022/05/08 01:36:26;;;;;;;12.57;7.53;;;12.50;77.30;;;;;;5100854;28;20810;-78
2022/05/08 01:38:56;;;;;;;13.43;8.13;;;12.50;1.00;;;;;;5095235;28;20210;-78
2022/05/08 01:41:23;;;;;;;15.40;7.60;;;12.20;91.80;;;;;;5102064;28;20201;-78
2022/05/08 01:43:50;;;;;;;19.50;8.70;;;12.30;99.90;;;;;;5101755;28;20569;-78
2022/05/08 01:46:20;;;;;;;15.03;7.07;;;12.50;98.40;;;;;;5101868;28;20196;-77
2022/05/08 01:48:49;;;;;;;10.53;6.07;;;12.30;1.00;;;;;;5102141;28;20264;-79
2022/05/08 01:51:16;;;;;;;13.70;5.73;;;13.00;40.20;;;;;;5094092;28;20247;-80
2022/05/08 01:53:44;;;;;;;12.97;5.93;;;13.10;99.90;;;;;;5118024;27;20205;-79
2022/05/08 01:56:11;;;;;;;11.87;5.83;;;13.00;1.00;;;;;;5085254;28;20206;-77
2022/05/08 01:58:38;;;;;;;12.60;5.53;;;12.50;1.00;;;;;;5099632;28;20228;-78
2022/05/08 02:01:08;;;;;;;11.20;5.77;;;12.90;43.20;;;;;;5101347;28;20221;-78
2022/05/08 02:03:39;;;;;;;18.87;7.10;;;13.30;1.00;;;;;;5086015;28;20265;-79
2022/05/08 02:06:06;;;;;;;17.13;6.90;;;12.80;1.00;;;;;;5104636;28;20614;-80
2022/05/08 02:08:34;;;;;;;19.50;7.47;;;12.50;1.00;;;;;;5084300;28;20203;-78
2022/05/08 02:11:01;;;;;;;14.93;7.30;;;12.00;1.00;;;;;;5075448;28;20708;-84
2022/05/08 02:13:28;;;;;;;14.77;6.73;;;11.90;1.00;;;;;;5080240;28;20297;-80
2022/05/08 02:15:55;;;;;;;17.00;7.00;;;11.80;1.00;;;;;;5100578;28;20202;-78
2022/05/08 02:18:23;;;;;;;18.37;7.00;;;11.30;1.00;;;;;;5100064;28;20201;-78
2022/05/08 02:20:50;;;;;;;16.23;6.57;;;11.40;12.30;;;;;;5083396;28;20221;-78
2022/05/08 02:23:17;;;;;;;15.00;6.50;;;11.60;1.00;;;;;;5077706;28;20210;-76
2022/05/08 02:25:44;;;;;;;16.23;6.53;;;11.60;1.00;;;;;;5086843;28;20189;-77
2022/05/08 02:28:14;;;;;;;21.07;7.30;;;11.40;1.00;;;;;;5099955;28;20201;-78
2022/05/08 02:30:47;;;;;;;17.83;6.27;;;11.20;1.00;;;;;;5086676;28;20458;-77
2022/05/08 02:33:14;;;;;;;20.03;6.70;;;11.10;3.80;;;;;;5099752;28;20220;-78
2022/05/08 02:35:44;;;;;;;17.13;7.03;;;11.50;1.00;;;;;;5083834;28;20197;-81
2022/05/08 02:38:11;;;;;;;20.77;6.47;;;11.30;1.00;;;;;;5082935;28;20202;-79
2022/05/08 02:40:38;;;;;;;21.53;6.57;;;11.30;1.00;;;;;;5086982;28;20240;-78
2022/05/08 02:43:05;;;;;;;23.93;7.00;;;11.10;1.00;;;;;;5098358;28;20224;-78
2022/05/08 02:45:32;;;;;;;16.97;6.10;;;10.80;1.00;;;;;;5093541;28;20224;-78
2022/05/08 02:48:02;;;;;;;20.40;6.20;;;10.80;25.70;;;;;;5086476;28;20198;-78
2022/05/08 02:50:36;;;;;;;19.27;6.40;;;11.20;99.90;;;;;;5101221;28;20684;-79
2022/05/08 02:53:09;;;;;;;14.17;5.30;;;11.30;99.90;;;;;;5100432;28;20185;-78
2022/05/08 02:58:34;;;;;;;15.93;5.37;;;11.60;3.40;;;;;;5100003;28;20229;-78
2022/05/08 03:01:05;;;;;;;18.47;5.97;;;11.60;1.00;;;;;;5086747;28;20504;-79
2022/05/08 03:03:33;;;;;;;18.60;5.97;;;10.90;1.00;;;;;;5080706;28;20190;-78
2022/05/08 03:06:01;;;;;;;18.07;5.50;;;10.90;31.00;;;;;;5098404;28;20243;-76
2022/05/08 03:08:28;;;;;;;17.60;5.90;;;11.10;47.20;;;;;;5096913;28;20218;-77
2022/05/08 03:13:44;;;;;;;24.67;6.50;;;11.00;1.00;;;;;;5095873;28;20216;-77
2022/05/08 03:16:12;;;;;;;14.13;5.20;;;10.80;1.00;;;;;;5098650;28;20206;-77
2022/05/08 03:18:40;;;;;;;20.27;5.37;;;10.80;99.90;;;;;;5100401;28;20259;-78
2022/05/08 03:21:09;;;;;;;14.47;4.90;;;11.20;34.70;;;;;;5093230;28;20225;-82
2022/05/08 03:23:38;;;;;;;22.20;5.97;;;11.20;99.90;;;;;;5067798;28;20194;-82
2022/05/08 03:26:05;;;;;;;19.60;5.53;;;11.80;1.00;;;;;;5085671;28;20205;-79
2022/05/08 03:28:34;;;;;;;19.03;5.47;;;11.30;1.00;;;;;;5100811;28;20284;-78
2022/05/08 03:31:01;;;;;;;19.83;6.70;;;11.50;1.00;;;;;;5102661;28;20198;-78
2022/05/08 03:33:30;;;;;;;15.40;5.20;;;11.10;1.00;;;;;;5100907;28;20243;-79
2022/05/08 03:35:59;;;;;;;19.97;5.90;;;11.20;99.90;;;;;;5069048;28;20193;-78
2022/05/08 03:38:27;;;;;;;16.50;5.57;;;11.10;45.90;;;;;;5085814;28;20223;-81
2022/05/08 03:40:55;;;;;;;19.40;5.67;;;11.10;99.90;;;;;;5096334;28;20221;-79
2022/05/08 03:43:25;;;;;;;13.07;5.03;;;11.30;1.00;;;;;;5065564;28;20206;-78
2022/05/08 03:45:52;;;;;;;17.80;4.73;;;11.20;37.60;;;;;;5087221;28;20220;-78
2022/05/08 03:48:20;;;;;;;18.87;6.07;;;11.40;1.00;;;;;;5100545;28;20195;-78
2022/05/08 03:50:50;;;;;;;16.80;5.80;;;11.20;1.00;;;;;;5083102;28;20708;-80
2022/05/08 03:53:18;;;;;;;22.07;5.63;;;10.50;1.00;;;;;;5081768;28;20214;-80
2022/05/08 03:55:45;;;;;;;15.40;4.73;;;10.40;23.60;;;;;;5081925;28;20221;-76
2022/05/08 03:58:13;;;;;;;21.20;5.73;;;10.70;1.00;;;;;;5099757;28;20230;-81
2022/05/08 04:00:40;;;;;;;28.47;5.97;;;10.60;99.90;;;;;;5086520;28;20214;-81
2022/05/08 04:03:14;;;;;;;18.17;6.30;;;10.40;1.00;;;;;;5092225;28;20281;-80
2022/05/08 04:05:42;;;;;;;19.90;5.47;;;10.20;99.90;;;;;;5082796;28;20309;-78
2022/05/08 04:08:11;;;;;;;25.40;6.20;;;10.30;99.90;;;;;;5098883;28;20668;-77
2022/05/08 04:10:38;;;;;;;23.23;5.90;;;10.40;99.90;;;;;;5081547;28;20297;-77
2022/05/08 04:13:05;;;;;;;21.10;5.47;;;10.30;1.00;;;;;;5084952;28;20250;-78
2022/05/08 04:18:22;;;;;;;23.73;6.53;;;10.20;99.90;;;;;;5084122;28;20198;-79
2022/05/08 04:20:49;;;;;;;25.33;6.47;;;10.30;24.70;;;;;;5085415;28;20215;-78
2022/05/08 04:26:03;;;;;;;20.57;5.20;;;10.30;99.90;;;;;;5102995;28;20194;-77
2022/05/08 04:28:30;;;;;;;17.63;5.23;;;10.70;99.90;;;;;;5082139;28;20350;-79
2022/05/08 04:30:57;;;;;;;18.40;5.67;;;10.80;1.00;;;;;;5085482;28;20616;-78
2022/05/08 04:33:25;;;;;;;15.00;5.07;;;11.30;1.00;;;;;;5099822;28;20939;-78
2022/05/08 04:35:52;;;;;;;19.50;5.60;;;11.20;99.90;;;;;;5098382;28;20959;-79
2022/05/08 04:38:19;;;;;;;23.87;5.60;;;11.40;1.00;;;;;;5101594;28;20194;-78
2022/05/08 04:40:46;;;;;;;24.93;6.60;;;11.20;1.00;;;;;;5100074;28;20668;-77
2022/05/08 04:43:13;;;;;;;21.70;5.40;;;10.80;1.00;;;;;;5074717;28;20194;-77
2022/05/08 04:45:40;;;;;;;18.70;4.97;;;10.60;1.00;;;;;;5084495;28;20268;-77
2022/05/08 04:48:07;;;;;;;22.37;5.20;;;10.50;1.00;;;;;;5099476;28;20188;-77
2022/05/08 04:50:34;;;;;;;16.73;5.20;;;10.60;1.00;;;;;;5098679;28;20221;-77
2022/05/08 04:53:02;;;;;;;21.00;4.83;;;10.60;1.00;;;;;;5083540;28;20202;-77
2022/05/08 04:55:31;;;;;;;17.03;5.73;;;10.90;1.00;;;;;;5083462;28;20202;-79
2022/05/08 04:57:58;;;;;;;14.50;4.40;;;11.00;60.00;;;;;;5101207;28;20316;-77
2022/05/08 05:00:29;;;;;;;15.13;5.30;;;11.60;1.00;;;;;;5098894;28;20229;-77
2022/05/08 05:02:56;;;;;;;16.20;5.10;;;11.30;1.00;;;;;;5099776;28;20226;-77
2022/05/08 05:05:24;;;;;;;12.17;4.90;;;11.20;1.00;;;;;;5100698;28;20198;-77
2022/05/08 05:07:52;;;;;;;18.10;5.27;;;11.80;99.90;;;;;;5083584;28;20399;-78
2022/05/08 05:10:22;;;;;;;19.27;4.63;;;12.20;1.00;;;;;;5072205;28;20293;-77
2022/05/08 05:12:53;;;;;;;16.57;4.83;;;12.20;1.00;;;;;;5099383;28;20190;-77
2022/05/08 05:15:24;;;;;;;18.87;5.50;;;11.90;1.00;;;;;;5115560;27;20266;-79
2022/05/08 05:17:54;;;;;;;18.50;4.80;;;12.00;1.00;;;;;;5094052;28;20254;-78
2022/05/08 05:20:21;;;;;;;24.90;6.37;;;11.60;1.00;;;;;;5099172;28;20218;-77
2022/05/08 05:22:48;;;;;;;18.20;5.20;;;11.60;1.00;;;;;;5082326;28;20696;-78
2022/05/08 05:25:15;;;;;;;23.47;5.50;;;12.40;1.00;;;;;;5083013;28;20252;-78
2022/05/08 05:27:42;;;;;;;14.43;4.90;;;12.50;1.00;;;;;;5115027;27;20580;-76
2022/05/08 05:30:09;;;;;;;16.27;4.50;;;13.20;1.00;;;;;;5098039;28;20798;-78
2022/05/08 05:32:38;;;;;;;14.33;4.47;;;13.80;1.00;;;;;;5081363;28;20244;-77
2022/05/08 05:35:05;;;;;;;13.27;4.03;;;13.40;1.00;;;;;;5103090;28;20573;-77
2022/05/08 05:37:34;;;;;;;18.07;5.10;;;14.00;1.00;;;;;;5097503;28;20215;-79
2022/05/08 05:40:01;;;;;;;21.00;5.33;;;13.90;1.00;;;;;;5099861;28;20569;-76
2022/05/08 05:42:36;;;;;;;18.43;4.97;;;13.30;1.00;;;;;;5082868;28;20288;-77
2022/05/08 05:45:03;;;;;;;16.63;4.70;;;12.30;1.00;;;;;;5067607;28;20622;-77
2022/05/08 05:47:52;;;;;;;19.43;5.37;;;12.40;1.00;;;;;;5081526;28;20642;-77
2022/05/08 05:50:21;;;;;;;12.27;4.27;;;12.70;1.00;;;;;;5091187;28;20198;-76
2022/05/08 05:52:50;;;;;;;20.13;4.73;;;12.40;1.00;;;;;;5084257;28;20205;-76
2022/05/08 05:55:18;;;;;;;15.40;4.77;;;12.50;1.00;;;;;;5083802;28;20255;-77
2022/05/08 05:57:46;;;;;;;17.77;5.20;;;13.00;1.00;;;;;;5082597;27;20299;-77
2022/05/08 06:00:16;;;;;;;24.93;5.77;;;13.60;1.00;;;;;;5087080;27;20552;-77
2022/05/08 06:02:44;;;;;;;18.57;4.73;;;13.00;1.00;;;;;;5103480;27;20830;-76
2022/05/08 06:05:12;;;;;;;18.33;4.53;;;12.30;1.00;;;;;;5102859;27;20211;-76
2022/05/08 06:07:46;;;;;;;13.20;4.70;;;11.80;1.00;;;;;;5084354;27;20193;-77
2022/05/08 06:10:14;;;;;;;18.13;4.53;;;12.40;1.00;;;;;;5085123;27;20216;-76
2022/05/08 06:12:41;;;;;;;12.97;4.27;;;13.00;1.00;;;;;;5104437;27;20197;-80
2022/05/08 06:15:09;;;;;;;14.23;4.63;;;12.50;1.00;;;;;;5086269;27;20220;-78
2022/05/08 06:17:36;;;;;;;22.30;4.70;;;12.20;1.00;;;;;;5082950;27;20694;-77
2022/05/08 06:20:04;;;;;;;11.57;4.60;;;12.00;1.00;;;;;;5096866;27;20205;-80
2022/05/08 06:22:34;;;;;;;12.60;4.20;;;12.60;1.00;;;;;;5100692;27;20238;-79
2022/05/08 06:25:03;;;;;;;20.43;5.83;;;12.60;1.00;;;;;;5099446;27;20223;-77
2022/05/08 06:27:30;;;;;;;16.77;4.63;;;12.90;1.00;;;;;;5097134;27;20189;-77
2022/05/08 06:29:59;;;;;;;16.30;4.10;;;13.00;1.00;;;;;;5102802;27;20280;-77
2022/05/08 06:32:26;;;;;;;16.17;4.90;;;12.90;1.00;;;;;;5082930;27;20215;-76
2022/05/08 06:34:53;;;;;;;15.23;4.00;;;12.70;1.00;;;;;;5101554;27;20205;-77
2022/05/08 06:37:21;;;;;;;18.30;4.07;;;12.20;1.00;;;;;;5087014;27;20299;-76
2022/05/08 06:39:48;;;;;;;15.67;4.00;;;12.30;1.00;;;;;;5101818;27;20288;-78
2022/05/08 06:42:15;;;;;;;18.13;4.67;;;12.60;1.00;;;;;;5097999;28;20262;-80
2022/05/08 06:44:45;;;;;;;11.00;3.70;;;12.50;1.00;;;;;;5087036;27;20233;-79
2022/05/08 06:47:12;;;;;;;11.73;3.80;;;12.50;1.00;;;;;;5122121;27;20779;-79
2022/05/08 06:49:39;;;;;;;15.37;3.60;;;13.60;1.00;;;;;;5102084;27;20209;-77
2022/05/08 06:52:06;;;;;;;13.17;4.13;;;14.30;1.00;;;;;;5098217;28;20197;-77
2022/05/08 06:54:34;;;;;;;18.30;4.50;;;15.00;99.90;;;;;;5087137;27;20711;-78
2022/05/08 06:57:02;;;;;;;15.13;4.33;;;13.40;1.00;;;;;;5099158;27;20704;-78
2022/05/08 07:02:15;;;;;;;13.73;4.30;;;12.40;1.00;;;;;;5118805;27;20295;-77
2022/05/08 07:04:42;;;;;;;16.50;4.10;;;12.30;1.00;;;;;;5070284;27;20193;-80
2022/05/08 07:07:09;;;;;;;15.10;4.57;;;12.50;1.00;;;;;;5094522;27;20667;-78
2022/05/08 07:09:37;;;;;;;13.60;4.00;;;13.20;1.00;;;;;;5099512;27;20186;-78
2022/05/08 07:12:06;;;;;;;18.57;4.53;;;13.30;1.00;;;;;;5081801;27;20219;-78
2022/05/08 07:14:33;;;;;;;24.93;4.70;;;13.50;99.90;;;;;;5100610;27;20201;-77
2022/05/08 07:17:00;;;;;;;16.73;4.83;;;13.50;1.00;;;;;;5101358;27;20299;-78
2022/05/08 07:19:27;;;;;;;12.90;3.80;;;13.80;1.00;;;;;;5079549;27;20197;-78
2022/05/08 07:21:54;;;;;;;13.47;4.33;;;13.70;99.90;;;;;;5095308;27;20221;-76
2022/05/08 07:24:21;;;;;;;19.80;4.77;;;13.00;99.90;;;;;;5068481;27;20190;-79
2022/05/08 07:26:48;;;;;;;15.43;5.00;;;12.70;99.90;;;;;;5098578;27;20202;-77
2022/05/08 07:29:15;;;;;;;14.03;4.70;;;12.40;99.90;;;;;;5100916;28;20198;-77
2022/05/08 07:31:45;;;;;;;13.57;4.83;;;12.70;1.00;;;;;;5085545;27;20278;-78
2022/05/08 07:37:05;;;;;;;12.77;3.93;;;13.70;1.00;;;;;;5068787;27;20610;-78
2022/05/08 07:39:32;;;;;;;12.73;4.30;;;13.90;99.90;;;;;;5096625;27;20296;-77
2022/05/08 07:41:59;;;;;;;15.27;4.43;;;14.10;99.90;;;;;;5074389;27;20210;-76
2022/05/08 07:44:26;;;;;;;15.70;4.40;;;14.20;99.90;;;;;;5115438;27;21097;-77
2022/05/08 07:46:53;;;;;;;19.60;4.13;;;15.60;99.90;;;;;;5081979;27;20185;-78
2022/05/08 07:49:20;;;;;;;14.87;3.90;;;16.20;99.90;;;;;;5079187;28;20196;-77
2022/05/08 07:51:47;;;;;;;13.57;4.13;;;16.60;99.90;;;;;;5099706;28;20212;-77
2022/05/08 07:54:14;;;;;;;15.17;4.43;;;16.80;99.90;;;;;;5081569;28;20284;-78
2022/05/08 07:56:41;;;;;;;11.70;3.13;;;16.10;99.90;;;;;;5080688;27;20202;-78
2022/05/08 07:59:14;;;;;;;14.73;3.90;;;15.50;99.90;;;;;;5085794;28;20233;-78
2022/05/08 08:01:41;;;;;;;13.68;4.40;;;16.10;99.90;;;;;;5079910;28;20662;-78
2022/05/08 08:04:18;;;;;;;15.60;4.75;;;16.90;99.90;;;;;;5078891;28;20196;-78
2022/05/08 08:06:45;;;;;;;11.90;5.45;;;17.60;99.90;;;;;;5093127;28;20521;-77
2022/05/08 08:09:12;;;;;;;13.35;3.53;;;18.10;99.90;;;;;;5082110;28;20202;-77
2022/05/08 08:11:41;;;;;;;10.30;3.45;;;17.40;99.90;;;;;;5111879;28;20197;-78
2022/05/08 08:14:08;;;;;;;15.73;4.20;;;17.90;99.90;;;;;;5122161;28;20197;-78
2022/05/08 08:16:55;;;;;;;11.07;3.40;;;17.90;99.90;;;;;;5103937;28;20241;-79
2022/05/08 08:19:22;;;;;;;14.35;3.65;;;17.60;99.90;;;;;;5110451;28;20197;-78
2022/05/08 08:21:52;;;;;;;13.35;4.32;;;15.90;99.90;;;;;;5095249;28;20233;-77
2022/05/08 08:24:19;;;;;;;11.90;3.73;;;15.70;99.90;;;;;;5080156;28;20196;-77
2022/05/08 08:26:48;;;;;;;11.43;3.63;;;16.20;99.90;;;;;;5097879;28;20716;-77
2022/05/08 08:29:16;;;;;;;10.10;3.07;;;16.00;99.90;;;;;;5091165;28;20193;-77
2022/05/08 08:31:43;;;;;;;10.97;3.03;;;16.80;99.90;;;;;;5119005;28;20216;-77
2022/05/08 08:34:12;;;;;;;10.38;3.30;;;16.80;99.90;;;;;;5114688;28;20205;-77
2022/05/08 08:36:39;;;;;;;12.75;3.25;;;16.90;99.90;;;;;;5097330;28;20711;-77
2022/05/08 08:39:06;;;;;;;11.20;3.67;;;17.10;99.90;;;;;;5092175;28;20205;-79
2022/05/08 08:41:35;;;;;;;9.00;3.33;;;17.10;99.90;;;;;;5100774;28;20857;-80
2022/05/08 08:49:47;;;;;;;10.35;3.63;;;17.50;99.90;;;;;;5117158;28;20201;-77
2022/05/08 08:52:16;;;;;;;10.07;3.80;;;17.10;99.90;;;;;;5101031;28;20203;-78
2022/05/08 08:54:43;;;;;;;8.75;3.05;;;17.10;99.90;;;;;;5119283;28;20192;-78
2022/05/08 08:57:10;;;;;;;12.98;3.47;;;16.80;99.90;;;;;;5116408;28;21184;-80
2022/05/08 08:59:37;;;;;;;11.88;3.35;;;15.60;99.90;;;;;;5100221;28;20225;-79
2022/05/08 09:02:16;;;;;;;11.60;3.40;;;16.30;99.90;;;;;;5084451;28;20205;-78
2022/05/08 09:04:51;;;;;;;13.13;3.60;;;16.50;99.90;;;;;;5107581;28;20198;-78
2022/05/08 09:07:34;;;;;;;11.20;3.97;;;16.10;99.90;;;;;;5100989;27;20888;-78
2022/05/08 09:10:11;;;;;;;12.88;3.65;;;16.50;99.90;;;;;;5122824;27;20242;-76
2022/05/08 09:12:41;;;;;;;15.27;3.60;;;16.70;99.90;;;;;;5100485;27;20238;-79
2022/05/08 09:15:23;;;;;;;15.48;4.13;;;16.70;99.90;;;;;;5099396;27;20537;-80
2022/05/08 09:17:58;;;;;;;16.77;6.18;;;16.30;99.90;;;;;;5098803;27;20204;-78
2022/05/08 09:20:30;;;;;;;18.02;6.57;;;17.00;99.90;;;;;;5087409;27;20197;-79
2022/05/08 09:23:06;;;;;;;16.77;6.40;;;18.00;99.90;;;;;;5101431;27;20217;-78
2022/05/08 09:25:50;;;;;;;17.25;6.50;;;18.80;99.90;;;;;;5115962;27;20304;-78
2022/05/08 09:28:40;;;;;;;11.68;4.50;;;19.90;99.90;;;;;;5121905;27;20243;-78
2022/05/08 09:31:12;;;;;;;12.07;4.30;;;20.50;99.90;;;;;;5090508;27;20201;-78
2022/05/08 09:33:42;;;;;;;16.25;5.05;;;19.70;99.90;;;;;;5082101;28;20207;-78
2022/05/08 09:36:27;;;;;;;11.93;4.65;;;19.60;99.90;;;;;;5094075;27;20558;-77
2022/05/08 09:39:00;;;;;;;13.32;4.88;;;20.60;99.90;;;;;;5110445;27;20186;-77
2022/05/08 09:41:29;;;;;;;13.05;4.15;;;21.80;99.90;;;;;;5094455;27;20222;-77
2022/05/08 09:44:08;;;;;;;14.25;4.30;;;22.80;99.90;;;;;;5096810;27;20204;-77
2022/05/08 09:46:45;;;;;;;8.60;3.30;;;25.00;99.90;;;;;;5068853;27;20671;-77
2022/05/08 09:49:14;;;;;;;10.32;3.25;;;24.90;99.90;;;;;;5095979;27;20204;-77
2022/05/08 09:51:42;;;;;;;16.20;3.80;;;23.30;99.90;;;;;;5071276;27;20196;-78
2022/05/08 09:54:09;;;;;;;11.30;3.50;;;23.20;99.90;;;;;;5087433;27;20216;-77
2022/05/08 09:56:38;;;;;;;18.85;5.38;;;21.70;99.90;;;;;;5117758;27;20672;-77
2022/05/08 09:59:08;;;;;;;11.57;3.90;;;22.40;99.90;;;;;;5100833;27;20277;-77
2022/05/08 10:01:37;;;;;;;9.65;3.67;;;23.00;99.90;;;;;;5102431;27;20217;-78
2022/05/08 10:04:05;;;;;;;15.20;4.50;;;20.50;99.90;;;;;;5104453;27;20645;-77
2022/05/08 10:06:37;;;;;;;13.68;4.05;;;20.10;99.90;;;;;;5118785;27;20246;-77
2022/05/08 10:14:39;;;;;;;10.45;3.60;;;20.70;99.90;;;;;;5103608;27;20204;-77
2022/05/08 10:17:08;;;;;;;12.32;4.07;;;20.90;99.90;;;;;;5097163;27;20275;-77
2022/05/08 10:19:35;;;;;;;8.40;3.60;;;20.10;99.90;;;;;;5102646;27;20205;-78
2022/05/08 10:22:05;;;;;;;13.10;4.15;;;20.80;99.90;;;;;;5097144;28;20226;-77
2022/05/08 10:24:55;;;;;;;12.32;4.32;;;21.00;99.90;;;;;;5095975;27;20207;-78
2022/05/08 10:27:31;;;;;;;13.45;3.85;;;20.50;99.90;;;;;;5099537;27;20204;-78
2022/05/08 10:29:58;;;;;;;13.20;4.07;;;19.90;99.90;;;;;;5076471;27;20287;-78
2022/05/08 10:32:31;;;;;;;15.23;4.05;;;19.40;99.90;;;;;;5102375;27;20272;-77
2022/05/08 10:35:16;;;;;;;12.52;4.65;;;19.60;99.90;;;;;;5100519;27;20210;-78
2022/05/08 10:37:47;;;;;;;9.38;3.45;;;20.20;99.90;;;;;;5100866;27;20193;-77
2022/05/08 10:40:23;;;;;;;14.63;3.80;;;21.20;99.90;;;;;;5115288;27;20221;-78
2022/05/08 10:42:55;;;;;;;10.30;3.80;;;23.80;99.90;;;;;;5112267;27;20235;-77
2022/05/08 10:45:29;;;;;;;10.88;3.40;;;24.30;99.90;;;;;;5096881;27;20215;-78
2022/05/08 10:48:05;;;;;;;12.10;3.30;;;23.00;99.90;;;;;;5118361;27;20577;-77
2022/05/08 10:50:32;;;;;;;8.98;3.55;;;24.00;99.90;;;;;;5082016;27;20204;-78
2022/05/08 10:52:59;;;;;;;9.98;3.20;;;23.50;99.90;;;;;;5097516;27;20208;-76
2022/05/08 10:55:27;;;;;;;10.07;3.05;;;24.80;99.90;;;;;;5097268;27;20606;-76
2022/05/08 10:57:55;;;;;;;9.57;3.63;;;26.50;99.90;;;;;;5114263;27;20920;-75
2022/05/08 11:00:24;;;;;;;8.32;4.13;;;25.70;99.90;;;;;;5114450;27;20196;-75
2022/05/08 11:03:01;;;;;;;10.60;4.10;;;25.70;99.90;;;;;;5089965;27;20216;-75
2022/05/08 11:05:37;;;;;;;8.05;3.53;;;25.10;99.90;;;;;;5097304;27;20735;-75
2022/05/08 11:08:04;;;;;;;6.43;3.40;;;25.50;99.90;;;;;;5114262;27;20207;-75
2022/05/08 11:10:39;;;;;;;11.23;3.70;;;26.20;99.90;;;;;;5097237;27;20740;-74
2022/05/08 11:13:15;;;;;;;9.25;3.53;;;26.10;99.90;;;;;;5080028;27;20310;-76
2022/05/08 11:15:47;;;;;;;9.65;3.30;;;27.70;99.90;;;;;;5098113;27;20197;-74
2022/05/08 11:18:19;;;;;;;12.07;3.92;;;27.70;99.90;;;;;;5096555;27;20197;-76
2022/05/08 11:20:53;;;;;;;9.73;3.50;;;26.70;99.90;;;;;;5105974;27;20202;-74
2022/05/08 11:23:23;;;;;;;9.65;4.15;;;25.90;99.90;;;;;;5092004;27;20204;-76
2022/05/08 11:25:55;;;;;;;7.88;3.30;;;25.90;99.90;;;;;;5080561;27;20245;-76
2022/05/08 11:28:26;;;;;;;9.40;3.40;;;24.00;99.90;;;;;;5093242;28;20189;-77
2022/05/08 11:30:55;;;;;;;11.57;3.80;;;25.10;99.90;;;;;;5075253;28;20204;-79
2022/05/08 11:36:36;;;;;;;10.73;3.72;;;23.50;99.90;;;;;;5092279;27;20270;-76
2022/05/08 11:39:14;;;;;;;10.45;3.50;;;23.10;99.90;;;;;;5087796;27;20197;-76
2022/05/08 11:41:51;;;;;;;10.55;3.85;;;24.00;99.90;;;;;;5078500;28;20736;-76
2022/05/08 11:44:25;;;;;;;9.20;3.88;;;25.20;99.90;;;;;;5080570;28;20204;-78
2022/05/08 11:46:57;;;;;;;10.32;4.13;;;24.50;99.90;;;;;;5078275;27;20193;-78
2022/05/08 11:49:25;;;;;;;13.05;3.85;;;23.70;99.90;;;;;;5065232;28;20956;-78
2022/05/08 11:51:56;;;;;;;9.55;3.42;;;22.70;99.90;;;;;;5069324;27;20204;-77
2022/05/08 11:54:35;;;;;;;8.80;3.40;;;22.80;99.90;;;;;;5087132;28;20193;-78
2022/05/08 11:57:12;;;;;;;11.15;3.95;;;22.80;99.90;;;;;;5107305;28;20189;-77
2022/05/08 11:59:40;;;;;;;12.05;5.28;;;24.00;99.90;;;;;;5072596;28;20232;-78
2022/05/08 12:02:08;;;;;;;12.85;5.38;;;23.90;99.90;;;;;;5083415;28;20212;-78
2022/05/08 12:04:36;;;;;;;11.40;4.80;;;23.70;99.90;;;;;;5071099;28;20749;-77
2022/05/08 12:07:10;;;;;;;10.88;4.32;;;23.10;99.90;;;;;;5097530;28;20187;-77
2022/05/08 12:09:44;;;;;;;9.52;3.95;;;23.50;99.90;;;;;;5085889;28;20200;-78
2022/05/08 12:12:41;;;;;;;10.65;3.92;;;23.90;99.90;;;;;;5114346;28;20300;-78
2022/05/08 12:15:11;;;;;;;10.63;3.60;;;23.80;99.90;;;;;;5084150;28;20652;-78
2022/05/08 12:17:41;;;;;;;10.27;3.60;;;22.80;99.90;;;;;;5097533;28;20225;-78
2022/05/08 12:20:14;;;;;;;8.75;3.00;;;22.70;99.90;;;;;;5099503;28;20572;-79
2022/05/08 12:22:42;;;;;;;10.63;3.58;;;22.60;99.90;;;;;;5097684;28;20229;-78
2022/05/08 12:25:13;;;;;;;10.35;3.65;;;22.70;99.90;;;;;;5082234;28;20188;-78
2022/05/08 12:27:40;;;;;;;16.15;5.20;;;22.90;99.90;;;;;;5086192;28;20588;-78
2022/05/08 12:30:10;;;;;;;10.98;5.15;;;22.60;99.90;;;;;;5093338;28;20227;-79
2022/05/08 12:32:39;;;;;;;11.88;5.40;;;21.90;99.90;;;;;;5089097;28;20190;-79
2022/05/08 12:35:08;;;;;;;9.95;4.15;;;21.90;99.90;;;;;;5076562;28;20725;-79
2022/05/08 12:37:37;;;;;;;7.53;3.50;;;22.10;99.90;;;;;;5101061;28;20184;-79
2022/05/08 12:40:06;;;;;;;10.40;4.00;;;22.00;99.90;;;;;;5090803;28;20785;-79
2022/05/08 12:42:33;;;;;;;10.75;4.25;;;22.30;99.90;;;;;;5113753;27;20289;-78
2022/05/08 12:45:00;;;;;;;8.48;3.60;;;21.80;99.90;;;;;;5100376;27;20190;-79
2022/05/08 12:47:28;;;;;;;9.15;4.00;;;21.50;99.90;;;;;;5084981;27;20200;-80
2022/05/08 12:50:01;;;;;;;9.02;3.45;;;21.20;99.90;;;;;;5118862;27;20265;-79
2022/05/08 12:52:28;;;;;;;12.35;3.75;;;20.70;99.90;;;;;;5106376;27;20209;-79
2022/05/08 12:54:55;;;;;;;10.50;3.33;;;19.50;99.90;;;;;;5105679;27;20201;-79
2022/05/08 13:00:11;;;;;;;10.15;3.60;;;19.80;99.90;;;;;;5108980;27;20245;-79
2022/05/08 13:02:41;;;;;;;8.82;3.50;;;19.30;99.90;;;;;;5085628;27;20286;-78
2022/05/08 13:05:08;;;;;;;13.23;3.45;;;19.50;99.90;;;;;;5082399;27;20231;-78
2022/05/08 13:07:36;;;;;;;8.98;3.65;;;20.00;99.90;;;;;;5087314;27;20578;-79
2022/05/08 13:10:03;;;;;;;8.88;3.67;;;20.20;99.90;;;;;;5120672;27;20287;-78
2022/05/08 13:12:31;;;;;;;12.40;4.25;;;20.50;99.90;;;;;;5104132;27;20194;-79
2022/05/08 13:14:58;;;;;;;10.13;3.80;;;19.80;99.90;;;;;;5121733;27;20242;-78
2022/05/08 13:17:26;;;;;;;10.43;3.65;;;19.80;99.90;;;;;;5086948;27;20205;-79
2022/05/08 13:19:53;;;;;;;9.75;3.38;;;19.30;99.90;;;;;;5087570;27;20205;-80
2022/05/08 13:22:20;;;;;;;7.93;3.50;;;19.30;99.90;;;;;;5084233;27;20216;-80
2022/05/08 13:24:47;;;;;;;6.03;3.10;;;19.10;99.90;;;;;;5102577;27;20716;-79
2022/05/08 13:27:14;;;;;;;9.73;3.97;;;19.10;99.90;;;;;;5088472;27;20190;-79
2022/05/08 13:29:42;;;;;;;9.23;3.95;;;19.50;99.90;;;;;;5120809;27;20683;-79